sensor_id;sensor_type;location;lat;lon;timestamp;P1;durP1;ratioP1;P2;durP2;ratioP2
12725;SDS011;6427;49.754;6.106;2023-02-28T00:01:14;1.33;;;1.20;;
12725;SDS011;6427;49.754;6.106;2023-02-28T00:03:38;2.03;;;1.47;;
12725;SDS011;6427;49.754;6.106;2023-02-28T00:06:06;2.10;;;1.27;;
12725;SDS011;6427;49.754;6.106;2023-02-28T00:08:33;1.67;;;1.40;;
12725;SDS011;6427;49.754;6.106;2023-02-28T00:11:02;1.87;;;1.10;;
12725;SDS011;6427;49.754;6.106;2023-02-28T00:13:29;2.80;;;1.15;;
12725;SDS011;6427;49.754;6.106;2023-02-28T00:16:00;1.30;;;1.10;;
12725;SDS011;6427;49.754;6.106;2023-02-28T00:18:27;2.70;;;1.30;;
12725;SDS011;6427;49.754;6.106;2023-02-28T00:20:55;2.78;;;1.80;;
12725;SDS011;6427;49.754;6.106;2023-02-28T00:23:23;1.97;;;1.20;;
12725;SDS011;6427;49.754;6.106;2023-02-28T00:25:51;1.60;;;1.30;;
12725;SDS011;6427;49.754;6.106;2023-02-28T00:28:18;1.60;;;1.10;;
12725;SDS011;6427;49.754;6.106;2023-02-28T00:30:46;1.00;;;0.73;;
12725;SDS011;6427;49.754;6.106;2023-02-28T00:33:13;1.70;;;1.10;;
12725;SDS011;6427;49.754;6.106;2023-02-28T00:35:41;1.67;;;0.90;;
12725;SDS011;6427;49.754;6.106;2023-02-28T00:38:09;1.57;;;1.00;;
12725;SDS011;6427;49.754;6.106;2023-02-28T00:40:37;3.13;;;1.10;;
12725;SDS011;6427;49.754;6.106;2023-02-28T00:43:04;3.20;;;1.03;;
12725;SDS011;6427;49.754;6.106;2023-02-28T00:45:32;1.30;;;0.80;;
12725;SDS011;6427;49.754;6.106;2023-02-28T00:47:59;2.30;;;1.00;;
12725;SDS011;6427;49.754;6.106;2023-02-28T00:50:27;2.13;;;1.10;;
12725;SDS011;6427;49.754;6.106;2023-02-28T00:52:54;0.90;;;0.80;;
12725;SDS011;6427;49.754;6.106;2023-02-28T00:55:22;1.30;;;0.80;;
12725;SDS011;6427;49.754;6.106;2023-02-28T00:57:50;2.00;;;1.10;;
12725;SDS011;6427;49.754;6.106;2023-02-28T01:00:18;5.93;;;0.83;;
12725;SDS011;6427;49.754;6.106;2023-02-28T01:02:46;1.47;;;0.90;;
12725;SDS011;6427;49.754;6.106;2023-02-28T01:05:13;1.97;;;0.87;;
12725;SDS011;6427;49.754;6.106;2023-02-28T01:07:41;3.83;;;1.27;;
12725;SDS011;6427;49.754;6.106;2023-02-28T01:10:08;2.83;;;1.10;;
12725;SDS011;6427;49.754;6.106;2023-02-28T01:12:36;4.40;;;1.62;;
12725;SDS011;6427;49.754;6.106;2023-02-28T01:15:04;2.20;;;1.20;;
12725;SDS011;6427;49.754;6.106;2023-02-28T01:17:31;1.90;;;1.07;;
12725;SDS011;6427;49.754;6.106;2023-02-28T01:19:59;2.40;;;1.27;;
12725;SDS011;6427;49.754;6.106;2023-02-28T01:22:27;3.00;;;1.40;;
12725;SDS011;6427;49.754;6.106;2023-02-28T01:24:55;2.17;;;1.30;;
12725;SDS011;6427;49.754;6.106;2023-02-28T01:27:23;1.40;;;1.10;;
12725;SDS011;6427;49.754;6.106;2023-02-28T01:29:50;1.73;;;1.00;;
12725;SDS011;6427;49.754;6.106;2023-02-28T01:32:18;2.70;;;1.10;;
12725;SDS011;6427;49.754;6.106;2023-02-28T01:34:46;2.97;;;1.47;;
12725;SDS011;6427;49.754;6.106;2023-02-28T01:37:14;2.10;;;1.27;;
12725;SDS011;6427;49.754;6.106;2023-02-28T01:39:41;4.63;;;1.13;;
12725;SDS011;6427;49.754;6.106;2023-02-28T01:42:09;2.33;;;1.30;;
12725;SDS011;6427;49.754;6.106;2023-02-28T01:47:34;1.83;;;1.10;;
12725;SDS011;6427;49.754;6.106;2023-02-28T01:50:00;3.80;;;1.27;;
12725;SDS011;6427;49.754;6.106;2023-02-28T01:52:27;2.00;;;1.20;;
12725;SDS011;6427;49.754;6.106;2023-02-28T01:54:56;2.17;;;1.17;;
12725;SDS011;6427;49.754;6.106;2023-02-28T01:57:24;3.67;;;1.00;;
12725;SDS011;6427;49.754;6.106;2023-02-28T01:59:56;2.90;;;1.30;;
12725;SDS011;6427;49.754;6.106;2023-02-28T02:02:22;1.93;;;1.13;;
12725;SDS011;6427;49.754;6.106;2023-02-28T02:07:25;1.73;;;1.30;;
12725;SDS011;6427;49.754;6.106;2023-02-28T02:10:14;2.50;;;1.80;;
12725;SDS011;6427;49.754;6.106;2023-02-28T02:18:32;2.57;;;1.50;;
12725;SDS011;6427;49.754;6.106;2023-02-28T02:23:33;2.40;;;1.03;;
12725;SDS011;6427;49.754;6.106;2023-02-28T02:36:29;2.80;;;1.50;;
12725;SDS011;6427;49.754;6.106;2023-02-28T02:39:05;3.27;;;1.50;;
12725;SDS011;6427;49.754;6.106;2023-02-28T02:41:49;3.57;;;1.33;;
12725;SDS011;6427;49.754;6.106;2023-02-28T02:44:19;3.73;;;1.60;;
12725;SDS011;6427;49.754;6.106;2023-02-28T02:46:48;3.63;;;1.40;;
12725;SDS011;6427;49.754;6.106;2023-02-28T02:49:17;4.70;;;1.43;;
12725;SDS011;6427;49.754;6.106;2023-02-28T02:51:43;1.53;;;1.20;;
12725;SDS011;6427;49.754;6.106;2023-02-28T02:54:11;2.40;;;1.60;;
12725;SDS011;6427;49.754;6.106;2023-02-28T02:56:38;4.43;;;1.77;;
12725;SDS011;6427;49.754;6.106;2023-02-28T02:59:07;3.17;;;1.47;;
12725;SDS011;6427;49.754;6.106;2023-02-28T03:01:34;1.43;;;1.33;;
12725;SDS011;6427;49.754;6.106;2023-02-28T03:04:22;2.17;;;1.40;;
12725;SDS011;6427;49.754;6.106;2023-02-28T03:06:32;2.83;;;1.40;;
12725;SDS011;6427;49.754;6.106;2023-02-28T03:09:00;2.20;;;1.50;;
12725;SDS011;6427;49.754;6.106;2023-02-28T03:11:28;1.50;;;1.20;;
12725;SDS011;6427;49.754;6.106;2023-02-28T03:16:56;3.40;;;2.10;;
12725;SDS011;6427;49.754;6.106;2023-02-28T03:19:42;1.97;;;1.60;;
12725;SDS011;6427;49.754;6.106;2023-02-28T03:22:19;3.83;;;1.57;;
12725;SDS011;6427;49.754;6.106;2023-02-28T03:24:47;1.33;;;1.23;;
12725;SDS011;6427;49.754;6.106;2023-02-28T03:29:56;3.10;;;1.30;;
12725;SDS011;6427;49.754;6.106;2023-02-28T03:32:29;3.13;;;1.83;;
12725;SDS011;6427;49.754;6.106;2023-02-28T03:35:04;2.90;;;1.70;;
12725;SDS011;6427;49.754;6.106;2023-02-28T03:37:41;1.90;;;1.43;;
12725;SDS011;6427;49.754;6.106;2023-02-28T03:40:30;2.57;;;1.77;;
12725;SDS011;6427;49.754;6.106;2023-02-28T03:42:52;2.87;;;1.73;;
12725;SDS011;6427;49.754;6.106;2023-02-28T03:45:16;3.03;;;2.20;;
12725;SDS011;6427;49.754;6.106;2023-02-28T03:47:47;3.47;;;2.50;;
12725;SDS011;6427;49.754;6.106;2023-02-28T03:50:18;2.20;;;1.73;;
12725;SDS011;6427;49.754;6.106;2023-02-28T03:52:56;1.97;;;1.77;;
12725;SDS011;6427;49.754;6.106;2023-02-28T03:55:18;3.37;;;1.97;;
12725;SDS011;6427;49.754;6.106;2023-02-28T04:00:35;4.63;;;2.43;;
12725;SDS011;6427;49.754;6.106;2023-02-28T04:03:05;3.27;;;1.90;;
12725;SDS011;6427;49.754;6.106;2023-02-28T04:05:32;4.23;;;2.00;;
12725;SDS011;6427;49.754;6.106;2023-02-28T04:08:07;5.53;;;1.80;;
12725;SDS011;6427;49.754;6.106;2023-02-28T04:10:30;3.40;;;2.10;;
12725;SDS011;6427;49.754;6.106;2023-02-28T04:12:58;3.20;;;2.10;;
12725;SDS011;6427;49.754;6.106;2023-02-28T04:15:25;2.23;;;1.60;;
12725;SDS011;6427;49.754;6.106;2023-02-28T04:17:53;6.07;;;1.80;;
12725;SDS011;6427;49.754;6.106;2023-02-28T04:20:20;2.77;;;2.00;;
12725;SDS011;6427;49.754;6.106;2023-02-28T04:22:48;3.40;;;2.27;;
12725;SDS011;6427;49.754;6.106;2023-02-28T04:25:16;3.10;;;2.23;;
12725;SDS011;6427;49.754;6.106;2023-02-28T04:27:43;5.28;;;3.20;;
12725;SDS011;6427;49.754;6.106;2023-02-28T04:30:11;3.70;;;2.57;;
12725;SDS011;6427;49.754;6.106;2023-02-28T04:32:38;4.70;;;2.50;;
12725;SDS011;6427;49.754;6.106;2023-02-28T04:35:06;4.45;;;3.30;;
12725;SDS011;6427;49.754;6.106;2023-02-28T04:37:34;4.47;;;3.30;;
12725;SDS011;6427;49.754;6.106;2023-02-28T04:40:01;4.40;;;3.47;;
12725;SDS011;6427;49.754;6.106;2023-02-28T04:42:29;5.23;;;2.93;;
12725;SDS011;6427;49.754;6.106;2023-02-28T04:44:56;5.13;;;2.70;;
12725;SDS011;6427;49.754;6.106;2023-02-28T04:47:25;5.43;;;2.90;;
12725;SDS011;6427;49.754;6.106;2023-02-28T04:49:52;5.20;;;3.20;;
12725;SDS011;6427;49.754;6.106;2023-02-28T04:52:20;3.50;;;2.43;;
12725;SDS011;6427;49.754;6.106;2023-02-28T04:54:47;5.27;;;2.70;;
12725;SDS011;6427;49.754;6.106;2023-02-28T04:57:15;4.53;;;2.83;;
12725;SDS011;6427;49.754;6.106;2023-02-28T04:59:43;4.07;;;2.60;;
12725;SDS011;6427;49.754;6.106;2023-02-28T05:02:11;4.80;;;2.77;;
12725;SDS011;6427;49.754;6.106;2023-02-28T05:04:39;3.90;;;2.57;;
12725;SDS011;6427;49.754;6.106;2023-02-28T05:07:07;7.63;;;2.93;;
12725;SDS011;6427;49.754;6.106;2023-02-28T05:09:34;6.03;;;3.07;;
12725;SDS011;6427;49.754;6.106;2023-02-28T05:12:03;6.17;;;3.33;;
12725;SDS011;6427;49.754;6.106;2023-02-28T05:14:30;5.23;;;3.20;;
12725;SDS011;6427;49.754;6.106;2023-02-28T05:16:58;4.90;;;3.20;;
12725;SDS011;6427;49.754;6.106;2023-02-28T05:19:25;6.47;;;4.40;;
12725;SDS011;6427;49.754;6.106;2023-02-28T05:21:53;4.20;;;3.10;;
12725;SDS011;6427;49.754;6.106;2023-02-28T05:24:20;6.10;;;4.50;;
12725;SDS011;6427;49.754;6.106;2023-02-28T05:26:49;5.07;;;3.23;;
12725;SDS011;6427;49.754;6.106;2023-02-28T05:29:16;4.63;;;3.13;;
12725;SDS011;6427;49.754;6.106;2023-02-28T05:31:44;4.80;;;3.30;;
12725;SDS011;6427;49.754;6.106;2023-02-28T05:34:12;5.37;;;3.73;;
12725;SDS011;6427;49.754;6.106;2023-02-28T05:36:40;4.50;;;3.10;;
12725;SDS011;6427;49.754;6.106;2023-02-28T05:39:07;5.70;;;3.53;;
12725;SDS011;6427;49.754;6.106;2023-02-28T05:41:35;4.17;;;3.23;;
12725;SDS011;6427;49.754;6.106;2023-02-28T05:44:02;6.37;;;3.90;;
12725;SDS011;6427;49.754;6.106;2023-02-28T05:46:30;6.50;;;3.90;;
12725;SDS011;6427;49.754;6.106;2023-02-28T05:48:58;6.00;;;3.87;;
12725;SDS011;6427;49.754;6.106;2023-02-28T05:51:25;6.80;;;3.70;;
12725;SDS011;6427;49.754;6.106;2023-02-28T05:53:53;8.03;;;4.10;;
12725;SDS011;6427;49.754;6.106;2023-02-28T05:56:20;6.03;;;3.73;;
12725;SDS011;6427;49.754;6.106;2023-02-28T05:58:49;5.80;;;3.50;;
12725;SDS011;6427;49.754;6.106;2023-02-28T06:01:20;5.30;;;3.70;;
12725;SDS011;6427;49.754;6.106;2023-02-28T06:03:49;6.67;;;3.70;;
12725;SDS011;6427;49.754;6.106;2023-02-28T06:06:17;5.03;;;3.53;;
12725;SDS011;6427;49.754;6.106;2023-02-28T06:08:45;6.20;;;4.17;;
12725;SDS011;6427;49.754;6.106;2023-02-28T06:11:12;7.40;;;3.73;;
12725;SDS011;6427;49.754;6.106;2023-02-28T06:13:40;5.83;;;4.23;;
12725;SDS011;6427;49.754;6.106;2023-02-28T06:16:10;5.73;;;3.57;;
12725;SDS011;6427;49.754;6.106;2023-02-28T06:18:37;8.90;;;5.68;;
12725;SDS011;6427;49.754;6.106;2023-02-28T06:21:05;6.90;;;4.60;;
12725;SDS011;6427;49.754;6.106;2023-02-28T06:23:33;6.73;;;4.77;;
12725;SDS011;6427;49.754;6.106;2023-02-28T06:26:00;6.93;;;4.50;;
12725;SDS011;6427;49.754;6.106;2023-02-28T06:28:28;6.67;;;4.50;;
12725;SDS011;6427;49.754;6.106;2023-02-28T06:30:56;7.37;;;6.00;;
12725;SDS011;6427;49.754;6.106;2023-02-28T06:33:23;8.17;;;4.93;;
12725;SDS011;6427;49.754;6.106;2023-02-28T06:35:51;5.70;;;4.10;;
12725;SDS011;6427;49.754;6.106;2023-02-28T06:38:18;7.63;;;4.40;;
12725;SDS011;6427;49.754;6.106;2023-02-28T06:40:52;6.63;;;4.40;;
12725;SDS011;6427;49.754;6.106;2023-02-28T06:43:15;7.00;;;4.20;;
12725;SDS011;6427;49.754;6.106;2023-02-28T06:45:43;9.80;;;4.80;;
12725;SDS011;6427;49.754;6.106;2023-02-28T06:48:10;6.97;;;4.03;;
12725;SDS011;6427;49.754;6.106;2023-02-28T06:50:38;5.53;;;4.03;;
12725;SDS011;6427;49.754;6.106;2023-02-28T06:53:05;6.27;;;4.27;;
12725;SDS011;6427;49.754;6.106;2023-02-28T06:55:33;8.37;;;4.40;;
12725;SDS011;6427;49.754;6.106;2023-02-28T06:58:00;6.97;;;4.33;;
12725;SDS011;6427;49.754;6.106;2023-02-28T07:00:28;6.70;;;4.50;;
12725;SDS011;6427;49.754;6.106;2023-02-28T07:02:55;9.93;;;4.97;;
12725;SDS011;6427;49.754;6.106;2023-02-28T07:05:23;6.70;;;4.33;;
12725;SDS011;6427;49.754;6.106;2023-02-28T07:07:51;8.23;;;4.40;;
12725;SDS011;6427;49.754;6.106;2023-02-28T07:10:19;9.23;;;4.57;;
12725;SDS011;6427;49.754;6.106;2023-02-28T07:12:46;6.23;;;4.27;;
12725;SDS011;6427;49.754;6.106;2023-02-28T07:15:14;6.10;;;4.40;;
12725;SDS011;6427;49.754;6.106;2023-02-28T07:17:42;7.77;;;4.43;;
12725;SDS011;6427;49.754;6.106;2023-02-28T07:20:10;9.33;;;4.10;;
12725;SDS011;6427;49.754;6.106;2023-02-28T07:22:37;8.10;;;4.50;;
12725;SDS011;6427;49.754;6.106;2023-02-28T07:25:05;8.60;;;4.43;;
12725;SDS011;6427;49.754;6.106;2023-02-28T07:27:33;6.13;;;4.07;;
12725;SDS011;6427;49.754;6.106;2023-02-28T07:30:01;6.47;;;4.33;;
12725;SDS011;6427;49.754;6.106;2023-02-28T07:32:29;9.17;;;4.30;;
12725;SDS011;6427;49.754;6.106;2023-02-28T07:34:56;10.67;;;4.60;;
12725;SDS011;6427;49.754;6.106;2023-02-28T07:37:24;6.37;;;3.87;;
12725;SDS011;6427;49.754;6.106;2023-02-28T07:39:51;6.37;;;3.83;;
12725;SDS011;6427;49.754;6.106;2023-02-28T07:42:19;7.17;;;4.47;;
12725;SDS011;6427;49.754;6.106;2023-02-28T07:44:46;6.03;;;4.40;;
12725;SDS011;6427;49.754;6.106;2023-02-28T07:47:15;7.47;;;4.23;;
12725;SDS011;6427;49.754;6.106;2023-02-28T07:49:42;8.23;;;4.17;;
12725;SDS011;6427;49.754;6.106;2023-02-28T07:52:10;7.97;;;4.53;;
12725;SDS011;6427;49.754;6.106;2023-02-28T07:54:37;6.33;;;4.40;;
12725;SDS011;6427;49.754;6.106;2023-02-28T07:57:06;6.17;;;4.27;;
12725;SDS011;6427;49.754;6.106;2023-02-28T07:59:33;5.90;;;3.93;;
12725;SDS011;6427;49.754;6.106;2023-02-28T08:02:01;6.13;;;4.27;;
12725;SDS011;6427;49.754;6.106;2023-02-28T08:04:31;6.47;;;3.77;;
12725;SDS011;6427;49.754;6.106;2023-02-28T08:06:56;7.10;;;4.10;;
12725;SDS011;6427;49.754;6.106;2023-02-28T08:09:24;7.03;;;4.27;;
12725;SDS011;6427;49.754;6.106;2023-02-28T08:11:52;5.90;;;4.27;;
12725;SDS011;6427;49.754;6.106;2023-02-28T08:14:20;6.62;;;4.50;;
12725;SDS011;6427;49.754;6.106;2023-02-28T08:16:47;7.00;;;4.07;;
12725;SDS011;6427;49.754;6.106;2023-02-28T08:19:15;5.70;;;3.90;;
12725;SDS011;6427;49.754;6.106;2023-02-28T08:21:42;7.53;;;4.27;;
12725;SDS011;6427;49.754;6.106;2023-02-28T08:24:10;5.37;;;3.53;;
12725;SDS011;6427;49.754;6.106;2023-02-28T08:26:38;11.30;;;5.30;;
12725;SDS011;6427;49.754;6.106;2023-02-28T08:29:05;4.73;;;3.40;;
12725;SDS011;6427;49.754;6.106;2023-02-28T08:31:33;6.07;;;3.67;;
12725;SDS011;6427;49.754;6.106;2023-02-28T08:34:07;5.43;;;3.90;;
12725;SDS011;6427;49.754;6.106;2023-02-28T08:36:34;5.77;;;3.40;;
12725;SDS011;6427;49.754;6.106;2023-02-28T08:39:02;7.93;;;3.90;;
12725;SDS011;6427;49.754;6.106;2023-02-28T08:41:30;6.13;;;4.10;;
12725;SDS011;6427;49.754;6.106;2023-02-28T08:43:57;5.83;;;3.73;;
12725;SDS011;6427;49.754;6.106;2023-02-28T08:46:24;7.40;;;3.53;;
12725;SDS011;6427;49.754;6.106;2023-02-28T08:48:52;5.30;;;3.47;;
12725;SDS011;6427;49.754;6.106;2023-02-28T08:51:21;7.13;;;4.07;;
12725;SDS011;6427;49.754;6.106;2023-02-28T08:53:48;7.87;;;4.43;;
12725;SDS011;6427;49.754;6.106;2023-02-28T08:56:16;4.33;;;3.20;;
12725;SDS011;6427;49.754;6.106;2023-02-28T08:58:47;6.22;;;3.95;;
12725;SDS011;6427;49.754;6.106;2023-02-28T09:01:15;5.00;;;3.53;;
12725;SDS011;6427;49.754;6.106;2023-02-28T09:03:44;5.23;;;3.80;;
12725;SDS011;6427;49.754;6.106;2023-02-28T09:06:13;5.77;;;3.50;;
12725;SDS011;6427;49.754;6.106;2023-02-28T09:08:40;6.57;;;4.00;;
12725;SDS011;6427;49.754;6.106;2023-02-28T09:11:08;7.37;;;3.60;;
12725;SDS011;6427;49.754;6.106;2023-02-28T09:13:35;4.47;;;3.07;;
12725;SDS011;6427;49.754;6.106;2023-02-28T09:16:04;5.23;;;3.60;;
12725;SDS011;6427;49.754;6.106;2023-02-28T09:18:31;6.50;;;3.37;;
12725;SDS011;6427;49.754;6.106;2023-02-28T09:20:59;5.37;;;3.00;;
12725;SDS011;6427;49.754;6.106;2023-02-28T09:23:26;5.57;;;2.90;;
12725;SDS011;6427;49.754;6.106;2023-02-28T09:25:54;4.20;;;2.90;;
12725;SDS011;6427;49.754;6.106;2023-02-28T09:28:21;3.53;;;2.50;;
12725;SDS011;6427;49.754;6.106;2023-02-28T09:30:50;6.00;;;3.10;;
12725;SDS011;6427;49.754;6.106;2023-02-28T09:33:17;5.10;;;3.03;;
12725;SDS011;6427;49.754;6.106;2023-02-28T09:35:45;3.90;;;2.87;;
12725;SDS011;6427;49.754;6.106;2023-02-28T09:38:12;5.47;;;3.20;;
12725;SDS011;6427;49.754;6.106;2023-02-28T09:40:50;6.00;;;2.90;;
12725;SDS011;6427;49.754;6.106;2023-02-28T09:43:18;3.27;;;2.40;;
12725;SDS011;6427;49.754;6.106;2023-02-28T09:45:49;5.83;;;3.00;;
12725;SDS011;6427;49.754;6.106;2023-02-28T09:48:20;5.37;;;2.73;;
12725;SDS011;6427;49.754;6.106;2023-02-28T09:50:55;4.60;;;2.53;;
12725;SDS011;6427;49.754;6.106;2023-02-28T09:53:23;3.67;;;2.53;;
12725;SDS011;6427;49.754;6.106;2023-02-28T09:55:50;3.73;;;2.50;;
12725;SDS011;6427;49.754;6.106;2023-02-28T10:06:38;3.17;;;2.40;;
12725;SDS011;6427;49.754;6.106;2023-02-28T10:09:21;3.37;;;2.10;;
12725;SDS011;6427;49.754;6.106;2023-02-28T10:11:53;3.92;;;2.10;;
12725;SDS011;6427;49.754;6.106;2023-02-28T10:14:23;2.20;;;2.00;;
12725;SDS011;6427;49.754;6.106;2023-02-28T10:16:51;3.17;;;2.00;;
12725;SDS011;6427;49.754;6.106;2023-02-28T10:19:33;3.20;;;2.20;;
12725;SDS011;6427;49.754;6.106;2023-02-28T10:22:17;3.30;;;2.00;;
12725;SDS011;6427;49.754;6.106;2023-02-28T10:24:53;3.00;;;2.10;;
12725;SDS011;6427;49.754;6.106;2023-02-28T10:27:24;2.77;;;2.03;;
12725;SDS011;6427;49.754;6.106;2023-02-28T10:29:56;4.07;;;2.10;;
12725;SDS011;6427;49.754;6.106;2023-02-28T10:32:25;3.50;;;2.03;;
12725;SDS011;6427;49.754;6.106;2023-02-28T10:34:55;4.23;;;2.17;;
12725;SDS011;6427;49.754;6.106;2023-02-28T10:37:22;5.18;;;2.62;;
12725;SDS011;6427;49.754;6.106;2023-02-28T10:39:50;4.05;;;2.60;;
12725;SDS011;6427;49.754;6.106;2023-02-28T10:42:27;3.23;;;2.50;;
12725;SDS011;6427;49.754;6.106;2023-02-28T10:47:41;3.67;;;2.72;;
12725;SDS011;6427;49.754;6.106;2023-02-28T10:50:04;3.17;;;2.63;;
12725;SDS011;6427;49.754;6.106;2023-02-28T10:52:41;6.03;;;2.93;;
12725;SDS011;6427;49.754;6.106;2023-02-28T10:55:16;8.03;;;2.60;;
12725;SDS011;6427;49.754;6.106;2023-02-28T10:57:48;3.65;;;2.87;;
12725;SDS011;6427;49.754;6.106;2023-02-28T11:02:47;6.53;;;2.77;;
12725;SDS011;6427;49.754;6.106;2023-02-28T11:05:34;4.67;;;2.60;;
12725;SDS011;6427;49.754;6.106;2023-02-28T11:08:12;3.87;;;2.53;;
12725;SDS011;6427;49.754;6.106;2023-02-28T11:10:37;4.07;;;2.70;;
12725;SDS011;6427;49.754;6.106;2023-02-28T11:13:05;3.97;;;2.57;;
12725;SDS011;6427;49.754;6.106;2023-02-28T11:15:33;3.27;;;2.60;;
12725;SDS011;6427;49.754;6.106;2023-02-28T11:20:29;4.97;;;3.17;;
12725;SDS011;6427;49.754;6.106;2023-02-28T11:22:55;5.63;;;3.00;;
12725;SDS011;6427;49.754;6.106;2023-02-28T11:25:28;4.13;;;2.67;;
12725;SDS011;6427;49.754;6.106;2023-02-28T11:27:56;3.53;;;2.80;;
12725;SDS011;6427;49.754;6.106;2023-02-28T11:30:25;4.00;;;3.10;;
12725;SDS011;6427;49.754;6.106;2023-02-28T11:32:57;4.10;;;3.10;;
12725;SDS011;6427;49.754;6.106;2023-02-28T11:35:36;3.70;;;2.83;;
12725;SDS011;6427;49.754;6.106;2023-02-28T11:38:05;5.47;;;2.90;;
12725;SDS011;6427;49.754;6.106;2023-02-28T11:40:38;4.90;;;3.17;;
12725;SDS011;6427;49.754;6.106;2023-02-28T11:43:11;5.30;;;3.10;;
12725;SDS011;6427;49.754;6.106;2023-02-28T11:45:39;4.43;;;3.30;;
12725;SDS011;6427;49.754;6.106;2023-02-28T11:48:20;4.37;;;3.10;;
12725;SDS011;6427;49.754;6.106;2023-02-28T11:51:06;5.78;;;3.62;;
12725;SDS011;6427;49.754;6.106;2023-02-28T11:54:03;4.45;;;3.37;;
12725;SDS011;6427;49.754;6.106;2023-02-28T11:56:51;5.23;;;3.50;;
12725;SDS011;6427;49.754;6.106;2023-02-28T12:02:24;4.93;;;3.27;;
12725;SDS011;6427;49.754;6.106;2023-02-28T12:10:27;5.47;;;3.65;;
12725;SDS011;6427;49.754;6.106;2023-02-28T12:13:07;5.37;;;3.73;;
12725;SDS011;6427;49.754;6.106;2023-02-28T12:20:54;4.37;;;3.20;;
12725;SDS011;6427;49.754;6.106;2023-02-28T12:23:44;6.27;;;3.67;;
12725;SDS011;6427;49.754;6.106;2023-02-28T12:29:34;5.45;;;4.32;;
12725;SDS011;6427;49.754;6.106;2023-02-28T12:33:57;5.20;;;3.73;;
12725;SDS011;6427;49.754;6.106;2023-02-28T12:36:23;5.90;;;3.80;;
12725;SDS011;6427;49.754;6.106;2023-02-28T12:38:53;4.80;;;4.15;;
12725;SDS011;6427;49.754;6.106;2023-02-28T12:41:51;5.63;;;3.60;;
12725;SDS011;6427;49.754;6.106;2023-02-28T12:44:15;4.83;;;3.43;;
12725;SDS011;6427;49.754;6.106;2023-02-28T12:46:41;6.53;;;3.83;;
12725;SDS011;6427;49.754;6.106;2023-02-28T12:51:47;4.63;;;3.60;;
12725;SDS011;6427;49.754;6.106;2023-02-28T12:54:18;7.00;;;3.83;;
12725;SDS011;6427;49.754;6.106;2023-02-28T12:59:42;4.47;;;3.10;;
12725;SDS011;6427;49.754;6.106;2023-02-28T13:05:07;5.68;;;4.37;;
12725;SDS011;6427;49.754;6.106;2023-02-28T13:07:53;6.15;;;4.68;;
12725;SDS011;6427;49.754;6.106;2023-02-28T13:10:16;6.13;;;4.07;;
12725;SDS011;6427;49.754;6.106;2023-02-28T13:12:50;6.87;;;3.57;;
12725;SDS011;6427;49.754;6.106;2023-02-28T13:15:26;7.27;;;4.10;;
12725;SDS011;6427;49.754;6.106;2023-02-28T13:17:58;6.73;;;3.80;;
12725;SDS011;6427;49.754;6.106;2023-02-28T13:20:23;7.10;;;3.53;;
12725;SDS011;6427;49.754;6.106;2023-02-28T13:22:50;5.00;;;4.20;;
12725;SDS011;6427;49.754;6.106;2023-02-28T13:26:03;4.67;;;3.60;;
12725;SDS011;6427;49.754;6.106;2023-02-28T13:27:50;6.28;;;4.40;;
12725;SDS011;6427;49.754;6.106;2023-02-28T13:33:30;4.70;;;3.57;;
12725;SDS011;6427;49.754;6.106;2023-02-28T13:36:12;4.93;;;3.33;;
12725;SDS011;6427;49.754;6.106;2023-02-28T13:38:45;5.03;;;3.77;;
12725;SDS011;6427;49.754;6.106;2023-02-28T14:00:42;5.20;;;3.40;;
12725;SDS011;6427;49.754;6.106;2023-02-28T14:05:40;5.00;;;4.10;;
12725;SDS011;6427;49.754;6.106;2023-02-28T14:08:14;4.20;;;3.80;;
12725;SDS011;6427;49.754;6.106;2023-02-28T14:10:41;6.00;;;3.30;;
12725;SDS011;6427;49.754;6.106;2023-02-28T14:13:36;4.97;;;3.07;;
12725;SDS011;6427;49.754;6.106;2023-02-28T14:15:56;6.60;;;3.33;;
12725;SDS011;6427;49.754;6.106;2023-02-28T14:21:43;4.43;;;3.30;;
12725;SDS011;6427;49.754;6.106;2023-02-28T14:31:38;5.17;;;3.30;;
12725;SDS011;6427;49.754;6.106;2023-02-28T14:37:03;5.73;;;3.87;;
12725;SDS011;6427;49.754;6.106;2023-02-28T14:39:31;6.43;;;3.30;;
12725;SDS011;6427;49.754;6.106;2023-02-28T14:41:59;4.73;;;3.40;;
12725;SDS011;6427;49.754;6.106;2023-02-28T14:44:26;5.47;;;3.90;;
12725;SDS011;6427;49.754;6.106;2023-02-28T14:46:54;5.93;;;3.53;;
12725;SDS011;6427;49.754;6.106;2023-02-28T14:54:36;4.83;;;3.83;;
12725;SDS011;6427;49.754;6.106;2023-02-28T14:57:03;4.20;;;3.17;;
12725;SDS011;6427;49.754;6.106;2023-02-28T14:59:32;3.97;;;3.07;;
12725;SDS011;6427;49.754;6.106;2023-02-28T15:02:18;5.27;;;3.70;;
12725;SDS011;6427;49.754;6.106;2023-02-28T15:04:53;5.57;;;3.60;;
12725;SDS011;6427;49.754;6.106;2023-02-28T15:07:23;5.57;;;3.27;;
12725;SDS011;6427;49.754;6.106;2023-02-28T15:10:05;4.47;;;3.77;;
12725;SDS011;6427;49.754;6.106;2023-02-28T15:12:18;4.20;;;3.23;;
12725;SDS011;6427;49.754;6.106;2023-02-28T15:14:46;4.87;;;3.57;;
12725;SDS011;6427;49.754;6.106;2023-02-28T15:17:16;3.90;;;3.40;;
12725;SDS011;6427;49.754;6.106;2023-02-28T15:19:41;6.37;;;4.07;;
12725;SDS011;6427;49.754;6.106;2023-02-28T15:22:13;5.87;;;3.67;;
12725;SDS011;6427;49.754;6.106;2023-02-28T15:24:41;6.10;;;4.30;;
12725;SDS011;6427;49.754;6.106;2023-02-28T15:27:12;4.40;;;3.60;;
12725;SDS011;6427;49.754;6.106;2023-02-28T15:29:42;4.70;;;3.10;;
12725;SDS011;6427;49.754;6.106;2023-02-28T15:32:20;4.40;;;3.60;;
12725;SDS011;6427;49.754;6.106;2023-02-28T15:34:38;6.35;;;4.57;;
12725;SDS011;6427;49.754;6.106;2023-02-28T15:40:14;5.97;;;3.93;;
12725;SDS011;6427;49.754;6.106;2023-02-28T15:42:57;5.90;;;4.30;;
12725;SDS011;6427;49.754;6.106;2023-02-28T15:45:27;6.97;;;4.00;;
12725;SDS011;6427;49.754;6.106;2023-02-28T15:47:53;5.45;;;4.55;;
12725;SDS011;6427;49.754;6.106;2023-02-28T15:50:21;4.73;;;3.60;;
12725;SDS011;6427;49.754;6.106;2023-02-28T15:52:49;4.43;;;3.70;;
12725;SDS011;6427;49.754;6.106;2023-02-28T15:55:18;6.20;;;4.17;;
12725;SDS011;6427;49.754;6.106;2023-02-28T15:57:50;6.97;;;4.20;;
12725;SDS011;6427;49.754;6.106;2023-02-28T16:00:21;5.20;;;3.80;;
12725;SDS011;6427;49.754;6.106;2023-02-28T16:02:50;6.93;;;4.20;;
12725;SDS011;6427;49.754;6.106;2023-02-28T16:05:23;11.53;;;7.20;;
12725;SDS011;6427;49.754;6.106;2023-02-28T16:07:50;5.17;;;3.83;;
12725;SDS011;6427;49.754;6.106;2023-02-28T16:10:17;5.40;;;3.93;;
12725;SDS011;6427;49.754;6.106;2023-02-28T16:12:45;5.10;;;4.00;;
12725;SDS011;6427;49.754;6.106;2023-02-28T16:15:19;5.60;;;3.90;;
12725;SDS011;6427;49.754;6.106;2023-02-28T16:17:46;4.23;;;3.50;;
12725;SDS011;6427;49.754;6.106;2023-02-28T16:22:42;6.70;;;4.20;;
12725;SDS011;6427;49.754;6.106;2023-02-28T16:25:16;5.63;;;4.17;;
12725;SDS011;6427;49.754;6.106;2023-02-28T16:27:40;5.73;;;3.87;;
12725;SDS011;6427;49.754;6.106;2023-02-28T16:30:09;6.13;;;3.90;;
12725;SDS011;6427;49.754;6.106;2023-02-28T16:32:35;4.97;;;3.70;;
12725;SDS011;6427;49.754;6.106;2023-02-28T16:35:05;5.57;;;4.30;;
12725;SDS011;6427;49.754;6.106;2023-02-28T16:37:30;6.07;;;4.30;;
12725;SDS011;6427;49.754;6.106;2023-02-28T16:39:59;6.70;;;4.00;;
12725;SDS011;6427;49.754;6.106;2023-02-28T16:42:27;4.87;;;3.70;;
12725;SDS011;6427;49.754;6.106;2023-02-28T16:44:55;8.60;;;4.30;;
12725;SDS011;6427;49.754;6.106;2023-02-28T16:47:22;6.13;;;4.27;;
12725;SDS011;6427;49.754;6.106;2023-02-28T16:49:51;7.13;;;3.80;;
12725;SDS011;6427;49.754;6.106;2023-02-28T16:52:18;5.57;;;4.17;;
12725;SDS011;6427;49.754;6.106;2023-02-28T16:54:46;5.80;;;4.07;;
12725;SDS011;6427;49.754;6.106;2023-02-28T16:57:17;5.40;;;4.03;;
12725;SDS011;6427;49.754;6.106;2023-02-28T16:59:44;5.53;;;4.20;;
12725;SDS011;6427;49.754;6.106;2023-02-28T17:02:12;6.50;;;3.97;;
12725;SDS011;6427;49.754;6.106;2023-02-28T17:04:39;6.53;;;4.10;;
12725;SDS011;6427;49.754;6.106;2023-02-28T17:07:13;6.50;;;4.37;;
12725;SDS011;6427;49.754;6.106;2023-02-28T17:09:40;6.22;;;4.70;;
12725;SDS011;6427;49.754;6.106;2023-02-28T17:12:09;6.90;;;4.90;;
12725;SDS011;6427;49.754;6.106;2023-02-28T17:14:36;6.93;;;4.10;;
12725;SDS011;6427;49.754;6.106;2023-02-28T17:17:04;5.07;;;4.40;;
12725;SDS011;6427;49.754;6.106;2023-02-28T17:19:31;5.53;;;4.07;;